Time,TemperatureF,DewpointF,PressureIn,WindDirection,WindDirectionDegrees,WindSpeedMPH,WindSpeedGustMPH,Humidity,HourlyPrecipIn,Conditions,Clouds,dailyrainin,SoftwareType,DateUTC
2013-01-16 00:00:00,36.7,36.2,30.07,East,91,0.0,2.0,98,0.01,,OVC003,-99.99,VWS V12.06,2013-01-16 05:00:00,
2013-01-16 00:02:00,41.4,40.1,30.00,East,100,2.0,3.0,95,0.00,,OVC003,-99.99,VWS V12.06,2013-01-16 05:02:00,
2013-01-16 00:30:00,37.3,36.8,30.07,SSW,209,0.0,0.0,98,0.00,,OVC003,-99.99,VWS V12.06,2013-01-16 05:30:00,
2013-01-16 01:00:00,37.4,36.9,30.06,SSW,209,0.0,0.0,98,0.00, FG,,-99.99,VWS V12.06,2013-01-16 06:00:00,
2013-01-16 01:02:00,37.4,36.9,26.83,SSW,209,0.0,0.0,98,0.00, FG,,-99.99,VWS V12.06,2013-01-16 06:02:00,
2013-01-16 01:30:00,37.1,36.6,30.06,NNW,339,0.0,0.0,98,0.00, FG,,-99.99,VWS V12.06,2013-01-16 06:30:00,
2013-01-16 02:00:00,38.2,37.9,30.06,NNW,339,0.0,0.0,99,0.00, RA,RA,-99.99,VWS V12.06,2013-01-16 07:00:00,
2013-01-16 02:30:00,40.1,39.8,30.06,NNW,338,0.0,2.0,99,0.00, RA,RA,-99.99,VWS V12.06,2013-01-16 07:30:00,
2013-01-16 03:00:00,45.0,44.7,30.05,SW,223,5.0,7.0,99,0.00, RA,RA,-99.99,VWS V12.06,2013-01-16 08:00:00,
2013-01-16 03:30:00,44.4,44.1,30.04,SSW,211,1.0,1.0,99,0.01, RA,RA,-99.99,VWS V12.06,2013-01-16 08:30:00,
2013-01-16 04:00:00,43.4,42.9,30.03,SSW,211,0.0,1.0,98,0.01, BR,,-99.99,VWS V12.06,2013-01-16 09:00:00,
2013-01-16 04:30:00,43.4,43.1,30.02,SSW,211,1.0,2.0,99,0.01, BR,,-99.99,VWS V12.06,2013-01-16 09:30:00,
2013-01-16 05:00:00,44.6,44.3,30.01,SSW,207,2.0,3.0,99,0.02,,OVC022,-99.99,VWS V12.06,2013-01-16 10:00:00,
2013-01-16 05:30:00,41.7,41.2,30.00,SSW,211,3.0,4.0,98,0.03,,OVC022,-99.99,VWS V12.06,2013-01-16 10:30:00,
2013-01-16 06:00:00,41.4,40.9,30.01,SW,218,2.0,3.0,98,0.02, RA,RA,-99.99,VWS V12.06,2013-01-16 11:00:00,
2013-01-16 06:30:00,42.9,42.6,30.01,SSW,212,4.0,4.0,99,0.00, RA,RA,-99.99,VWS V12.06,2013-01-16 11:30:00,
2013-01-16 07:00:00,41.7,41.2,30.02,SW,214,2.0,3.0,98,0.00, FG,,-99.99,VWS V12.06,2013-01-16 12:00:00,
2013-01-16 07:30:00,41.2,40.7,30.02,SW,224,3.0,4.0,98,0.00, FG,,-99.99,VWS V12.06,2013-01-16 12:30:00,
2013-01-16 08:00:00,42.9,42.6,30.03,SW,215,3.0,4.0,99,0.02, FG,,-99.99,VWS V12.06,2013-01-16 13:00:00,
2013-01-16 08:30:00,43.9,43.6,30.04,SW,226,1.0,1.0,99,0.04, FG,,-99.99,VWS V12.06,2013-01-16 13:30:00,
2013-01-16 09:00:00,45.0,44.7,30.07,NNW,345,2.0,4.0,99,0.03, RA,RA,-99.99,VWS V12.06,2013-01-16 14:00:00,
2013-01-16 09:30:00,47.7,47.4,30.08,SSW,194,2.0,4.0,99,0.02, RA,RA,-99.99,VWS V12.06,2013-01-16 14:30:00,
2013-01-16 10:00:00,45.4,45.1,30.07,NNE,32,5.0,5.0,99,0.02, RA,RA,-99.99,VWS V12.06,2013-01-16 15:00:00,
2013-01-16 10:30:00,51.2,51.2,30.07,WSW,240,3.0,3.0,100,0.01, RA,RA,-99.99,VWS V12.06,2013-01-16 15:30:00,
2013-01-16 11:00:00,49.7,49.4,30.06,WSW,246,0.0,0.0,99,0.00,,OVC090,-99.99,VWS V12.06,2013-01-16 16:00:00,
2013-01-16 11:30:00,50.4,50.1,30.05,SSW,202,1.0,1.0,99,0.00,,OVC090,-99.99,VWS V12.06,2013-01-16 16:30:00,
2013-01-16 12:00:00,50.1,49.8,30.03,SW,223,0.0,0.0,99,0.00,,OVC060,-99.99,VWS V12.06,2013-01-16 17:00:00,
2013-01-16 12:30:00,50.1,49.6,30.01,SW,221,0.0,1.0,98,0.00,,OVC060,-99.99,VWS V12.06,2013-01-16 17:30:00,
2013-01-16 13:00:00,50.0,49.5,30.00,SW,221,2.0,4.0,98,0.00,,OVC070,-99.99,VWS V12.06,2013-01-16 18:00:00,
2013-01-16 13:30:00,49.6,49.1,30.00,WSW,248,6.0,6.0,98,0.00,,OVC070,-99.99,VWS V12.06,2013-01-16 18:30:00,
2013-01-16 14:00:00,53.1,52.5,30.00,SSW,207,4.0,4.0,98,0.00,,OVC090,-99.99,VWS V12.06,2013-01-16 19:00:00,
2013-01-16 14:30:00,54.2,53.4,29.99,SSW,209,4.0,7.0,97,0.00,,OVC090,-99.99,VWS V12.06,2013-01-16 19:30:00,
2013-01-16 15:00:00,54.1,52.1,30.00,SW,232,8.0,8.0,93,0.00,,BKN070,-99.99,VWS V12.06,2013-01-16 20:00:00,
2013-01-16 15:30:00,54.9,50.8,30.00,SW,225,11.0,11.0,86,0.00,,BKN070,-99.99,VWS V12.06,2013-01-16 20:30:00,
2013-01-16 16:00:00,52.8,49.3,30.02,WNW,297,4.0,9.0,88,0.00,,OVC080,-99.99,VWS V12.06,2013-01-16 21:00:00,
2013-01-16 16:30:00,51.7,49.2,30.02,SW,215,2.0,2.0,91,0.00,,OVC080,-99.99,VWS V12.06,2013-01-16 21:30:00,
2013-01-16 17:00:00,49.6,48.5,30.02,SSW,205,5.0,8.0,96,0.00, -RA,-RA,-99.99,VWS V12.06,2013-01-16 22:00:00,
2013-01-16 17:30:00,49.4,48.6,30.01,SSW,209,4.0,5.0,97,0.00, -RA,-RA,-99.99,VWS V12.06,2013-01-16 22:30:00,
2013-01-16 18:00:00,50.0,48.9,30.02,SSW,209,4.0,4.0,96,0.01,,OVC075,-99.99,VWS V12.06,2013-01-16 23:00:00,
2013-01-16 18:30:00,49.9,48.8,30.02,SW,217,3.0,4.0,96,0.01,,OVC075,-99.99,VWS V12.06,2013-01-16 23:30:00,
2013-01-16 19:00:00,50.1,48.7,30.02,WSW,238,7.0,7.0,95,0.00,,OVC090,-99.99,VWS V12.06,2013-01-17 00:00:00,
2013-01-16 19:30:00,51.0,49.3,30.02,SW,228,3.0,3.0,94,0.00,,OVC055,-99.99,VWS V12.06,2013-01-17 00:30:00,
2013-01-16 20:00:00,52.1,49.3,30.02,SW,221,0.0,0.0,90,0.00,,OVC050,-99.99,VWS V12.06,2013-01-17 01:00:00,
2013-01-16 20:30:00,53.0,49.2,30.02,SW,219,3.0,4.0,87,0.00,,OVC050,-99.99,VWS V12.06,2013-01-17 01:30:00,
2013-01-16 21:00:00,53.3,48.6,30.01,SW,229,3.0,4.0,84,0.00,,OVC050,-99.99,VWS V12.06,2013-01-17 02:00:00,
2013-01-16 21:30:00,53.4,48.7,30.00,SSW,207,0.0,2.0,84,0.00,,OVC050,-99.99,VWS V12.06,2013-01-17 02:30:00,
2013-01-16 22:00:00,53.3,48.9,30.01,SW,233,1.0,1.0,85,0.00,,OVC050,-99.99,VWS V12.06,2013-01-17 03:00:00,
2013-01-16 22:30:00,51.7,48.9,30.00,SSW,197,4.0,4.0,90,0.02,,OVC050,-99.99,VWS V12.06,2013-01-17 03:30:00,
2013-01-16 23:00:00,51.4,49.5,29.99,SW,223,4.0,4.0,93,0.02, -RA,-RA,-99.99,VWS V12.06,2013-01-17 04:00:00,
2013-01-16 23:30:00,51.3,49.3,29.99,SW,226,2.0,2.0,93,0.00, -RA,-RA,-99.99,VWS V12.06,2013-01-17 04:30:00,